Time;durP1;ratioP1;P1;durP2;ratioP2;P2;SDS_P1;SDS_P2;PMS_P1;PMS_P2;Temp;Humidity;BMP_temperature;BMP_pressure;BME280_temperature;BME280_humidity;BME280_pressure;Samples;Min_cycle;Max_cycle;Signal;HPM_P1;HPM_P2
2022/10/28 00:02:05;;;;;;;;;;;;;;;13.01;100.00;101756.97;4955427;28;20973;-74
2022/10/28 00:04:31;;;;;;;;;;;;;;;13.05;100.00;101700.09;4954348;28;19942;-74
2022/10/28 00:06:56;;;;;;;;;;;;;;;13.07;100.00;101617.63;4954803;28;19931;-74
2022/10/28 00:09:22;;;;;;;;;;;;;;;13.12;100.00;101600.53;4954662;28;20484;-74
2022/10/28 00:11:47;;;;;;;;;;;;;;;13.17;100.00;101638.44;4955061;28;19930;-73
2022/10/28 00:14:13;;;;;;;;;;;;;;;13.21;100.00;101655.13;4954713;28;20408;-74
2022/10/28 00:16:39;;;;;;;;;;;;;;;13.23;100.00;101673.66;4955306;28;19934;-74
2022/10/28 00:19:05;;;;;;;;;;;;;;;13.22;100.00;101698.50;4955175;28;19934;-74
2022/10/28 00:21:31;;;;;;;;;;;;;;;13.22;100.00;101768.50;4954772;28;19941;-74
2022/10/28 00:23:57;;;;;;;;;;;;;;;13.21;100.00;101766.78;4950743;28;20083;-74
2022/10/28 00:26:23;;;;;;;;;;;;;;;13.22;100.00;101763.19;4949909;28;19934;-74
2022/10/28 00:28:50;;;;;;;;;;;;;;;13.24;100.00;101761.31;4949681;28;19930;-74
2022/10/28 00:31:16;;;;;;;;;;;;;;;13.26;100.00;101747.97;4950109;28;19926;-74
2022/10/28 00:33:44;;;;;;;;;;;;;;;13.28;100.00;101751.41;4942970;28;19972;-74
2022/10/28 00:36:10;;;;;;;;;;;;;;;13.30;100.00;101757.56;4939238;28;19957;-74
2022/10/28 00:38:36;;;;;;;;;;;;;;;13.31;100.00;101738.84;4958603;28;19993;-74
2022/10/28 00:41:01;;;;;;;;;;;;;;;13.33;100.00;101740.63;4972473;28;20491;-74
2022/10/28 00:43:43;;;;;;;;;;;;;;;13.34;100.00;101732.53;4978019;28;19934;-74
2022/10/28 00:46:19;;;;;;;;;;;;;;;13.33;100.00;101725.50;4978186;28;19933;-74
2022/10/28 00:48:44;;;;;;;;;;;;;;;13.33;100.00;101714.88;4956038;28;19925;-74
2022/10/28 00:51:10;;;;;;;;;;;;;;;13.31;100.00;101714.94;4956705;28;19933;-74
2022/10/28 00:53:35;;;;;;;;;;;;;;;13.31;100.00;101719.41;4955964;28;19980;-74
2022/10/28 00:56:01;;;;;;;;;;;;;;;13.30;100.00;101709.69;4965310;28;19930;-74
2022/10/28 00:58:26;;;;;;;;;;;;;;;13.30;100.00;101717.69;4980236;28;19937;-74
2022/10/28 01:00:55;;;;;;;;;;;;;;;13.28;100.00;101719.50;4956007;28;19929;-74
2022/10/28 01:03:20;;;;;;;;;;;;;;;13.27;100.00;101715.13;4941660;28;20288;-74
2022/10/28 01:05:46;;;;;;;;;;;;;;;13.27;100.00;101717.78;4959637;28;19934;-74
2022/10/28 01:08:11;;;;;;;;;;;;;;;13.27;100.00;101712.47;4976866;28;19935;-74
2022/10/28 01:10:45;;;;;;;;;;;;;;;13.27;100.00;101712.47;4957381;28;20739;-74
2022/10/28 01:13:32;;;;;;;;;;;;;;;13.25;100.00;101699.22;4977796;28;19934;-73
2022/10/28 01:16:00;;;;;;;;;;;;;;;13.26;100.00;101705.44;4955746;28;19926;-74
2022/10/28 01:18:26;;;;;;;;;;;;;;;13.26;100.00;101703.66;4956252;28;20381;-74
2022/10/28 01:21:06;;;;;;;;;;;;;;;13.26;100.00;101693.00;4977264;28;19932;-73
2022/10/28 01:23:32;;;;;;;;;;;;;;;13.26;100.00;101694.78;4943276;28;19971;-74
2022/10/28 01:26:16;;;;;;;;;;;;;;;13.24;100.00;101680.72;4976112;28;20052;-73
2022/10/28 01:29:00;;;;;;;;;;;;;;;13.21;100.00;101679.03;4976654;28;19933;-74
2022/10/28 01:31:25;;;;;;;;;;;;;;;13.19;100.00;101675.59;4976451;28;20062;-74
2022/10/28 01:34:01;;;;;;;;;;;;;;;13.17;100.00;101680.97;4977493;28;19930;-74
2022/10/28 01:36:50;;;;;;;;;;;;;;;13.17;100.00;101680.97;4955399;28;19980;-74
2022/10/28 01:39:30;;;;;;;;;;;;;;;13.15;100.00;101687.28;4932374;28;19930;-74
2022/10/28 01:42:14;;;;;;;;;;;;;;;13.10;100.00;101690.16;4956850;28;19937;-73
2022/10/28 01:44:46;;;;;;;;;;;;;;;13.07;100.00;101690.25;4939667;28;19931;-74
2022/10/28 01:47:13;;;;;;;;;;;;;;;13.04;100.00;101693.06;4923626;28;19931;-74
2022/10/28 01:49:39;;;;;;;;;;;;;;;13.02;100.00;101681.63;4936474;28;19926;-74
2022/10/28 01:52:05;;;;;;;;;;;;;;;13.00;100.00;101675.50;4957048;28;19930;-74
2022/10/28 01:54:31;;;;;;;;;;;;;;;12.99;100.00;101679.97;4936586;28;19931;-73
2022/10/28 01:56:56;;;;;;;;;;;;;;;12.96;100.00;101672.09;4936555;28;19930;-76
2022/10/28 01:59:22;;;;;;;;;;;;;;;12.95;100.00;101672.16;4937375;28;19926;-76
2022/10/28 02:01:47;;;;;;;;;;;;;;;12.93;100.00;101661.63;4938049;28;19933;-76
2022/10/28 02:04:13;;;;;;;;;;;;;;;12.94;100.00;101662.47;4936890;28;19973;-76
2022/10/28 02:06:39;;;;;;;;;;;;;;;12.94;100.00;101667.78;4956540;28;20017;-75
2022/10/28 02:09:22;;;;;;;;;;;;;;;12.92;100.00;101662.56;4957460;28;20073;-76
2022/10/28 02:12:07;;;;;;;;;;;;;;;12.94;100.00;101675.75;4940034;28;19922;-76
2022/10/28 02:14:35;;;;;;;;;;;;;;;12.91;100.00;101674.09;4921418;28;19926;-73
2022/10/28 02:17:04;;;;;;;;;;;;;;;12.90;100.00;101667.06;4938916;28;20010;-74
2022/10/28 02:19:32;;;;;;;;;;;;;;;12.87;100.00;101665.38;4934748;28;19941;-74
2022/10/28 02:21:57;;;;;;;;;;;;;;;12.86;100.00;101660.16;4937017;28;19961;-74
2022/10/28 02:24:28;;;;;;;;;;;;;;;12.84;100.00;101665.53;4956706;28;20028;-74
2022/10/28 02:27:14;;;;;;;;;;;;;;;12.81;100.00;101657.66;4936328;28;19933;-74
2022/10/28 02:29:40;;;;;;;;;;;;;;;12.77;100.00;101651.63;4954235;28;20593;-74
2022/10/28 02:32:07;;;;;;;;;;;;;;;12.75;100.00;101653.47;4935859;28;20349;-74
2022/10/28 02:34:34;;;;;;;;;;;;;;;12.72;100.00;101643.00;4955649;28;19926;-74
2022/10/28 02:37:00;;;;;;;;;;;;;;;12.72;100.00;101647.44;4921002;28;20405;-74
2022/10/28 02:39:28;;;;;;;;;;;;;;;12.72;100.00;101642.13;4937009;28;19926;-74
2022/10/28 02:41:55;;;;;;;;;;;;;;;12.72;100.00;101629.72;4951379;28;20008;-74
2022/10/28 02:44:30;;;;;;;;;;;;;;;12.74;100.00;101626.97;4953564;28;19930;-74
2022/10/28 02:46:57;;;;;;;;;;;;;;;12.72;100.00;101632.38;4954470;28;20025;-74
2022/10/28 02:49:22;;;;;;;;;;;;;;;12.72;100.00;101634.16;4951896;28;20013;-74
2022/10/28 02:51:52;;;;;;;;;;;;;;;12.70;100.00;101622.72;4956529;28;20003;-74
2022/10/28 02:54:22;;;;;;;;;;;;;;;12.69;100.00;101621.84;4952099;28;20369;-74
2022/10/28 02:56:50;;;;;;;;;;;;;;;12.67;100.00;101626.38;4951358;28;19965;-74
2022/10/28 02:59:15;;;;;;;;;;;;;;;12.67;100.00;101620.19;4940085;28;19973;-74
2022/10/28 03:01:40;;;;;;;;;;;;;;;12.67;100.00;101620.19;4951253;28;20021;-74
2022/10/28 03:04:06;;;;;;;;;;;;;;;12.71;100.00;101621.81;4938729;28;19941;-74
2022/10/28 03:06:31;;;;;;;;;;;;;;;12.70;100.00;101607.63;4955674;28;20967;-73
2022/10/28 03:08:57;;;;;;;;;;;;;;;12.70;100.00;101604.13;4939612;28;19930;-73
2022/10/28 03:11:22;;;;;;;;;;;;;;;12.71;100.00;101603.19;4939495;28;19980;-74
2022/10/28 03:13:48;;;;;;;;;;;;;;;12.72;100.00;101610.25;4954659;28;20058;-73
2022/10/28 03:16:13;;;;;;;;;;;;;;;12.70;100.00;101598.81;4956372;28;19930;-74
2022/10/28 03:18:39;;;;;;;;;;;;;;;12.71;100.00;101603.19;4954340;28;20312;-74
2022/10/28 03:21:04;;;;;;;;;;;;;;;12.72;100.00;101610.25;4955195;28;19934;-74
2022/10/28 03:23:29;;;;;;;;;;;;;;;12.71;100.00;101612.06;4955625;28;19938;-74
2022/10/28 03:25:55;;;;;;;;;;;;;;;12.72;100.00;101610.25;4955585;28;20301;-76
2022/10/28 03:28:20;;;;;;;;;;;;;;;12.74;100.00;101608.38;4953603;28;20029;-74
2022/10/28 03:30:46;;;;;;;;;;;;;;;12.75;100.00;101604.81;4955797;28;20393;-74
2022/10/28 03:33:11;;;;;;;;;;;;;;;12.75;100.00;101600.34;4955243;28;19957;-74
2022/10/28 03:35:36;;;;;;;;;;;;;;;12.73;100.00;101602.22;4954913;28;19934;-74
2022/10/28 03:38:02;;;;;;;;;;;;;;;12.71;100.00;101596.09;4958418;28;19937;-74
2022/10/28 03:40:27;;;;;;;;;;;;;;;12.70;100.00;101594.34;4950195;28;19953;-74
2022/10/28 03:42:52;;;;;;;;;;;;;;;12.68;100.00;101593.56;4950581;28;19931;-74
2022/10/28 03:45:20;;;;;;;;;;;;;;;12.67;100.00;101586.53;4940504;28;20440;-74
2022/10/28 03:47:45;;;;;;;;;;;;;;;12.67;100.00;101590.97;4955590;28;19930;-74
2022/10/28 03:50:11;;;;;;;;;;;;;;;12.65;100.00;101592.84;4958361;28;19936;-74
2022/10/28 03:52:36;;;;;;;;;;;;;;;12.64;100.00;101591.97;4955066;28;19977;-73
2022/10/28 03:55:02;;;;;;;;;;;;;;;12.63;100.00;101592.88;4955256;28;20309;-74
2022/10/28 03:57:31;;;;;;;;;;;;;;;12.61;100.00;101587.66;4954912;28;19979;-73
2022/10/28 03:59:56;;;;;;;;;;;;;;;12.60;100.00;101591.22;4949828;28;20408;-74
2022/10/28 04:02:25;;;;;;;;;;;;;;;12.59;100.00;101593.97;4955164;28;20362;-74
2022/10/28 04:04:51;;;;;;;;;;;;;;;12.57;100.00;101593.16;4952651;28;19960;-73
2022/10/28 04:07:16;;;;;;;;;;;;;;;12.54;100.00;101587.97;4953372;28;19931;-74
2022/10/28 04:09:41;;;;;;;;;;;;;;;12.54;100.00;101587.97;4954560;28;19930;-74
2022/10/28 04:12:08;;;;;;;;;;;;;;;12.52;100.00;101587.19;4954976;28;20420;-74
2022/10/28 04:14:33;;;;;;;;;;;;;;;12.50;100.00;101581.94;4934373;28;20013;-74
2022/10/28 04:16:58;;;;;;;;;;;;;;;12.48;100.00;101582.00;4955143;28;19976;-74
2022/10/28 04:19:24;;;;;;;;;;;;;;;12.47;100.00;101579.38;4953532;28;20402;-74
2022/10/28 04:21:49;;;;;;;;;;;;;;;12.45;100.00;101571.50;4955172;28;20033;-73
2022/10/28 04:24:15;;;;;;;;;;;;;;;12.42;100.00;101566.31;4950304;28;19945;-74
2022/10/28 04:26:40;;;;;;;;;;;;;;;12.40;100.00;101564.63;4950702;28;19934;-73
2022/10/28 04:29:06;;;;;;;;;;;;;;;12.38;100.00;101570.03;4954720;28;19973;-73
2022/10/28 04:31:31;;;;;;;;;;;;;;;12.34;100.00;101571.97;4949764;28;19930;-74
2022/10/28 04:33:56;;;;;;;;;;;;;;;12.34;100.00;101571.97;4948766;28;20459;-73
2022/10/28 04:36:22;;;;;;;;;;;;;;;12.33;100.00;101570.19;4954024;28;19934;-76
2022/10/28 04:38:48;;;;;;;;;;;;;;;12.31;100.00;101566.75;4954389;28;19945;-73
2022/10/28 04:41:14;;;;;;;;;;;;;;;12.32;100.00;101567.63;4954322;28;19996;-73
2022/10/28 04:43:39;;;;;;;;;;;;;;;12.32;100.00;101564.97;4934885;28;20218;-76
2022/10/28 04:46:05;;;;;;;;;;;;;;;12.31;100.00;101566.75;4935159;28;20020;-73
2022/10/28 04:48:33;;;;;;;;;;;;;;;12.29;100.00;101558.00;4954501;28;20381;-76
2022/10/28 04:50:59;;;;;;;;;;;;;;;12.29;100.00;101558.00;4955090;28;20361;-77
2022/10/28 04:53:24;;;;;;;;;;;;;;;12.28;100.00;101544.78;4954570;28;20053;-76
2022/10/28 04:55:50;;;;;;;;;;;;;;;12.26;100.00;101552.81;4954446;28;19937;-76
2022/10/28 04:58:15;;;;;;;;;;;;;;;12.24;100.00;101540.53;4922719;28;20360;-76
2022/10/28 05:00:41;;;;;;;;;;;;;;;12.22;100.00;101545.91;4952855;28;19926;-76
2022/10/28 05:03:06;;;;;;;;;;;;;;;12.21;100.00;101552.16;4954150;28;19926;-73
2022/10/28 05:05:32;;;;;;;;;;;;;;;12.21;100.00;101539.72;4954184;28;20290;-76
2022/10/28 05:07:57;;;;;;;;;;;;;;;12.22;100.00;101537.94;4936688;28;20493;-76
2022/10/28 05:10:23;;;;;;;;;;;;;;;12.22;100.00;101541.44;4954372;28;20029;-74
2022/10/28 05:12:48;;;;;;;;;;;;;;;12.22;100.00;101537.94;4936749;28;19957;-74
2022/10/28 05:15:14;;;;;;;;;;;;;;;12.21;100.00;101550.34;4936202;28;20030;-73
2022/10/28 05:17:40;;;;;;;;;;;;;;;12.22;100.00;101548.56;4938582;28;21431;-74
2022/10/28 05:20:06;;;;;;;;;;;;;;;12.20;100.00;101553.09;4936760;28;19930;-74
2022/10/28 05:22:31;;;;;;;;;;;;;;;12.21;100.00;101552.16;4937343;28;20306;-74
2022/10/28 05:24:56;;;;;;;;;;;;;;;12.21;100.00;101552.16;4936854;28;19969;-73
2022/10/28 05:27:22;;;;;;;;;;;;;;;12.21;100.00;101546.84;4957944;28;20061;-74
2022/10/28 05:29:47;;;;;;;;;;;;;;;12.21;100.00;101552.16;4957756;28;19937;-74
2022/10/28 05:32:12;;;;;;;;;;;;;;;12.20;100.00;101545.97;4957515;28;19938;-74
2022/10/28 05:34:38;;;;;;;;;;;;;;;12.20;100.00;101547.78;4956947;28;20481;-74
2022/10/28 05:37:03;;;;;;;;;;;;;;;12.20;100.00;101540.66;4957116;28;20005;-74
2022/10/28 05:39:29;;;;;;;;;;;;;;;12.22;100.00;101532.63;4957046;28;19938;-74
2022/10/28 05:41:54;;;;;;;;;;;;;;;12.22;100.00;101536.13;4971563;28;19980;-74
2022/10/28 05:44:19;;;;;;;;;;;;;;;12.24;100.00;101529.94;4976404;28;20235;-74
2022/10/28 05:46:45;;;;;;;;;;;;;;;12.24;100.00;101525.47;4976599;28;20601;-74
2022/10/28 05:49:10;;;;;;;;;;;;;;;12.25;100.00;101531.66;4976658;28;20424;-74
2022/10/28 05:51:36;;;;;;;;;;;;;;;12.23;100.00;101523.75;4956552;28;19926;-74
2022/10/28 05:54:01;;;;;;;;;;;;;;;12.22;100.00;101532.63;4974838;28;21363;-74
2022/10/28 05:56:26;;;;;;;;;;;;;;;12.22;100.00;101532.63;4958425;28;19934;-74
2022/10/28 05:58:52;;;;;;;;;;;;;;;12.22;100.00;101537.94;4975788;28;19933;-74
2022/10/28 06:01:17;;;;;;;;;;;;;;;12.23;100.00;101537.00;4975519;28;19937;-74
2022/10/28 06:03:43;;;;;;;;;;;;;;;12.24;100.00;101525.47;4955587;28;20381;-73
2022/10/28 06:06:08;;;;;;;;;;;;;;;12.27;100.00;101522.69;4975606;28;19934;-74
2022/10/28 06:08:33;;;;;;;;;;;;;;;12.28;100.00;101524.41;4975868;28;19941;-74
2022/10/28 06:11:00;;;;;;;;;;;;;;;12.28;100.00;101529.72;4976004;28;19933;-74
2022/10/28 06:13:25;;;;;;;;;;;;;;;12.30;100.00;101535.81;4956858;28;20504;-74
2022/10/28 06:15:54;;;;;;;;;;;;;;;12.31;100.00;101532.25;4958379;28;19937;-74
2022/10/28 06:18:20;;;;;;;;;;;;;;;12.32;100.00;101533.97;4955392;28;19965;-74
2022/10/28 06:20:55;;;;;;;;;;;;;;;12.32;100.00;101528.66;4943755;28;20337;-74
2022/10/28 06:23:21;;;;;;;;;;;;;;;12.33;100.00;101524.22;4975817;28;20365;-74
2022/10/28 06:25:47;;;;;;;;;;;;;;;12.34;100.00;101526.81;4957493;28;20077;-74
2022/10/28 06:28:12;;;;;;;;;;;;;;;12.34;100.00;101518.84;4954046;28;21552;-74
2022/10/28 06:30:37;;;;;;;;;;;;;;;12.35;100.00;101522.34;4943691;28;21431;-74
2022/10/28 06:33:03;;;;;;;;;;;;;;;12.34;100.00;101518.84;4975003;28;20414;-74
2022/10/28 06:35:28;;;;;;;;;;;;;;;12.34;100.00;101529.47;4974919;28;19952;-74
2022/10/28 06:37:54;;;;;;;;;;;;;;;12.35;100.00;101533.84;4975205;28;20008;-74
2022/10/28 06:40:20;;;;;;;;;;;;;;;12.35;100.00;101533.84;4953495;28;19925;-74
2022/10/28 06:42:45;;;;;;;;;;;;;;;12.36;100.00;101532.91;4953006;28;19974;-74
2022/10/28 06:45:10;;;;;;;;;;;;;;;12.37;100.00;101533.78;4974267;28;19989;-74
2022/10/28 06:47:36;;;;;;;;;;;;;;;12.37;100.00;101541.75;4954988;28;19934;-74
2022/10/28 06:50:01;;;;;;;;;;;;;;;12.38;100.00;101540.81;4974349;28;20024;-73
2022/10/28 06:52:27;;;;;;;;;;;;;;;12.39;100.00;101539.03;4955064;28;19946;-74
2022/10/28 06:54:52;;;;;;;;;;;;;;;12.40;100.00;101548.72;4975008;28;20380;-74
2022/10/28 06:57:17;;;;;;;;;;;;;;;12.41;100.00;101542.50;4957348;28;20019;-73
2022/10/28 06:59:43;;;;;;;;;;;;;;;12.41;100.00;101545.16;4955682;28;19929;-74
2022/10/28 07:02:10;;;;;;;;;;;;;;;12.41;100.00;101547.81;4974871;28;21596;-74
2022/10/28 07:04:35;;;;;;;;;;;;;;;12.42;100.00;101544.22;4955420;28;19989;-74
2022/10/28 07:07:01;;;;;;;;;;;;;;;12.42;100.00;101553.03;4975187;28;20032;-75
2022/10/28 07:09:26;;;;;;;;;;;;;;;12.46;100.00;101567.03;4974727;28;19977;-74
2022/10/28 07:11:52;;;;;;;;;;;;;;;12.47;100.00;101551.06;4954990;28;19926;-74
2022/10/28 07:14:17;;;;;;;;;;;;;;;12.50;100.00;101566.00;4941776;28;20017;-74
2022/10/28 07:16:42;;;;;;;;;;;;;;;12.52;100.00;101569.44;4974604;28;20373;-74
2022/10/28 07:19:08;;;;;;;;;;;;;;;12.54;100.00;101570.25;4975113;28;20019;-74
2022/10/28 07:21:34;;;;;;;;;;;;;;;12.56;100.00;101568.41;4974950;28;19934;-74
2022/10/28 07:23:59;;;;;;;;;;;;;;;12.57;100.00;101574.56;4975231;28;19926;-74
2022/10/28 07:26:24;;;;;;;;;;;;;;;12.59;100.00;101564.75;4975369;28;20285;-74
2022/10/28 07:28:50;;;;;;;;;;;;;;;12.61;100.00;101565.53;4955298;28;19930;-74
2022/10/28 07:31:15;;;;;;;;;;;;;;;12.62;100.00;101565.47;4974567;28;19930;-74
2022/10/28 07:33:41;;;;;;;;;;;;;;;12.66;100.00;101560.91;4941139;28;19929;-75
2022/10/28 07:36:07;;;;;;;;;;;;;;;12.68;100.00;101555.53;4955686;28;19938;-74
2022/10/28 07:38:32;;;;;;;;;;;;;;;12.71;100.00;101550.06;4974646;28;20048;-74
2022/10/28 07:40:57;;;;;;;;;;;;;;;12.74;100.00;101555.22;4974091;28;19980;-74
2022/10/28 07:43:23;;;;;;;;;;;;;;;12.79;100.00;101547.94;4973084;28;19930;-74
2022/10/28 07:45:54;;;;;;;;;;;;;;;12.83;100.00;101552.19;4974399;28;20340;-74
2022/10/28 07:48:19;;;;;;;;;;;;;;;12.87;100.00;101560.91;4974549;28;19930;-74
2022/10/28 07:50:45;;;;;;;;;;;;;;;12.90;100.00;101558.09;4951911;28;19929;-74
2022/10/28 07:53:10;;;;;;;;;;;;;;;12.93;100.00;101563.28;4974470;28;19934;-74
2022/10/28 07:55:35;;;;;;;;;;;;;;;12.97;100.00;101567.53;4974881;28;20431;-74
2022/10/28 07:58:01;;;;;;;;;;;;;;;12.99;100.00;101562.16;4974459;28;20451;-74
2022/10/28 08:00:26;;;;;;;;;;;;;;;13.04;100.00;101568.13;4974570;28;19933;-74
2022/10/28 08:02:52;;;;;;;;;;;;;;;13.07;100.00;101567.97;4974048;28;20368;-74
2022/10/28 08:05:17;;;;;;;;;;;;;;;13.12;100.00;101565.09;4974250;28;20456;-74
2022/10/28 08:07:42;;;;;;;;;;;;;;;13.16;100.00;101567.59;4956127;28;19930;-74
2022/10/28 08:10:08;;;;;;;;;;;;;;;13.22;100.00;101566.44;4953272;28;19945;-74
2022/10/28 08:12:33;;;;;;;;;;;;;;;13.27;100.00;101564.44;4939878;28;20359;-74
2022/10/28 08:14:59;;;;;;;;;;;;;;;13.34;100.00;101561.50;4973765;28;19981;-74
2022/10/28 08:17:24;;;;;;;;;;;;;;;13.39;100.00;101563.00;4974382;28;20439;-74
2022/10/28 08:19:49;;;;;;;;;;;;;;;13.45;100.00;101564.50;4974180;28;19933;-74
2022/10/28 08:22:15;;;;;;;;;;;;;;;13.52;100.00;101573.97;4973985;28;19937;-74
2022/10/28 08:24:40;;;;;;;;;;;;;;;13.60;100.00;101580.72;4973953;28;19934;-74
2022/10/28 08:27:05;;;;;;;;;;;;;;;13.66;100.00;101585.75;4956615;28;20387;-74
2022/10/28 08:29:31;;;;;;;;;;;;;;;13.71;100.00;101578.44;4974048;28;20454;-75
2022/10/28 08:31:56;;;;;;;;;;;;;;;13.77;100.00;101577.31;4952823;28;19930;-74
2022/10/28 08:34:22;;;;;;;;;;;;;;;13.82;100.00;101575.25;4973641;28;20524;-74
2022/10/28 08:36:47;;;;;;;;;;;;;;;13.89;100.00;101565.19;4951966;28;19930;-75
2022/10/28 08:39:13;;;;;;;;;;;;;;;13.93;100.00;101564.09;4942109;28;20521;-74
2022/10/28 08:41:39;;;;;;;;;;;;;;;13.97;100.00;101566.56;4949065;28;20030;-75
2022/10/28 08:44:10;;;;;;;;;;;;;;;14.03;100.00;101572.50;4950150;28;19930;-75
2022/10/28 08:46:36;;;;;;;;;;;;;;;14.05;100.00;101576.81;4954433;28;20039;-74
2022/10/28 08:49:07;;;;;;;;;;;;;;;14.10;100.00;101579.25;4954241;28;19930;-74
2022/10/28 08:51:39;;;;;;;;;;;;;;;14.14;100.00;101572.84;4950749;28;19934;-74
2022/10/28 08:54:05;;;;;;;;;;;;;;;14.18;100.00;101587.75;4953683;28;20151;-74
2022/10/28 08:56:33;;;;;;;;;;;;;;;14.21;100.00;101587.59;4953307;28;19930;-75
2022/10/28 08:58:59;;;;;;;;;;;;;;;14.24;100.00;101587.47;4940965;28;20421;-74
2022/10/28 09:01:33;;;;;;;;;;;;;;;14.29;100.00;101594.34;4926815;28;20345;-75
2022/10/28 09:03:59;;;;;;;;;;;;;;;14.32;100.00;101591.53;4952141;28;20378;-75
2022/10/28 09:06:24;;;;;;;;;;;;;;;14.34;100.00;101602.97;4954723;28;19926;-75
2022/10/28 09:08:51;;;;;;;;;;;;;;;14.37;100.00;101586.81;4957720;28;19930;-75
2022/10/28 09:11:23;;;;;;;;;;;;;;;14.38;100.00;101577.88;4957630;28;19988;-75
2022/10/28 09:13:51;;;;;;;;;;;;;;;14.41;100.00;101585.75;4956686;28;19949;-75
2022/10/28 09:16:16;;;;;;;;;;;;;;;14.44;100.00;101584.72;4956035;28;19926;-75
2022/10/28 09:18:52;;;;;;;;;;;;;;;14.46;100.00;101586.38;4956351;28;20307;-75
2022/10/28 09:21:27;;;;;;;;;;;;;;;14.48;100.00;101586.28;4951542;28;19930;-76
2022/10/28 09:23:56;;;;;;;;;;;;;;;14.51;100.00;101583.47;4953091;28;19961;-75
2022/10/28 09:26:27;;;;;;;;;;;;;;;14.53;100.00;101587.78;4954434;28;20012;-75
2022/10/28 09:29:13;;;;;;;;;;;;;;;14.57;100.00;101588.50;4953164;28;19965;-76
2022/10/28 09:31:40;;;;;;;;;;;;;;;14.60;100.00;101577.69;4956995;28;20405;-75
2022/10/28 09:34:24;;;;;;;;;;;;;;;14.65;100.00;101588.09;4957777;28;20393;-75
2022/10/28 09:36:52;;;;;;;;;;;;;;;14.69;100.00;101589.69;4957347;28;20021;-74
2022/10/28 09:39:22;;;;;;;;;;;;;;;14.73;100.00;101580.59;4957042;28;20424;-75
2022/10/28 09:41:48;;;;;;;;;;;;;;;14.81;100.00;101585.53;4967633;28;20001;-75
2022/10/28 09:44:18;;;;;;;;;;;;;;;14.87;100.00;101590.56;4954606;28;20037;-76
2022/10/28 09:46:44;;;;;;;;;;;;;;;14.92;100.00;101588.53;4956090;28;19926;-75
2022/10/28 09:49:26;;;;;;;;;;;;;;;14.99;100.00;101583.72;4954968;28;21541;-75
2022/10/28 09:51:55;;;;;;;;;;;;;;;15.06;100.00;101573.59;4954711;28;19965;-75
2022/10/28 09:54:21;;;;;;;;;;;;;;;15.13;100.00;101571.47;4975473;28;19975;-75
2022/10/28 09:56:46;;;;;;;;;;;;;;;15.17;100.00;101570.38;4955927;28;20016;-75
2022/10/28 09:59:12;;;;;;;;;;;;;;;15.23;100.00;101566.50;4959930;28;19936;-76
2022/10/28 10:01:38;;;;;;;;;;;;;;;15.28;100.00;101575.13;4954193;28;19929;-76
2022/10/28 10:04:11;;;;;;;;;;;;;;;15.33;100.00;101565.94;4957092;28;20038;-75
2022/10/28 10:06:37;;;;;;;;;;;;;;;15.41;100.00;101567.34;4975290;28;20017;-75
2022/10/28 10:09:02;;;;;;;;;;;;;;;15.49;100.00;101570.44;4955800;28;19932;-75
2022/10/28 10:11:28;;;;;;;;;;;;;;;15.55;100.00;101567.44;4955660;28;19932;-75
2022/10/28 10:13:54;;;;;;;;;;;;;;;15.60;100.00;101562.69;4974994;28;20136;-75
2022/10/28 10:16:25;;;;;;;;;;;;;;;15.66;100.00;101561.50;4953866;28;19933;-75
2022/10/28 10:18:52;;;;;;;;;;;;;;;15.71;100.00;101563.91;4955353;28;20596;-75
2022/10/28 10:21:20;;;;;;;;;;;;;;;15.77;100.00;101574.25;4975479;28;19930;-75
2022/10/28 10:23:45;;;;;;;;;;;;;;;15.82;100.00;101564.19;4953721;28;19949;-75
2022/10/28 10:26:11;;;;;;;;;;;;;;;15.88;100.00;101568.28;4973474;28;20423;-75
2022/10/28 10:28:41;;;;;;;;;;;;;;;15.92;100.00;101559.22;4953774;28;19937;-75
2022/10/28 10:31:07;;;;;;;;;;;;;;;15.97;100.00;101564.28;4939266;28;20340;-76
2022/10/28 10:33:34;;;;;;;;;;;;;;;16.00;100.00;101564.09;4954469;28;20002;-76
2022/10/28 10:36:08;;;;;;;;;;;;;;;16.03;100.00;101558.59;4974338;28;20387;-75
2022/10/28 10:38:33;;;;;;;;;;;;;;;16.08;100.00;101564.50;4974884;28;20420;-75
2022/10/28 10:43:21;;;;;;;;;;;;;;;16.18;100.00;101561.31;5060627;27;19933;-76
2022/10/28 10:45:52;;;;;;;;;;;;;;;16.21;100.00;101556.66;5059325;28;20367;-76
2022/10/28 10:48:18;;;;;;;;;;;;;;;16.26;100.00;101551.03;5093685;28;19929;-76
2022/10/28 10:50:44;;;;;;;;;;;;;;;16.33;100.00;101544.41;5061754;28;20041;-75
2022/10/28 10:53:15;;;;;;;;;;;;;;;16.37;100.00;101547.75;5093868;28;19974;-76
2022/10/28 10:55:41;;;;;;;;;;;;;;;16.44;100.00;101535.75;5077086;28;20150;-77
2022/10/28 10:58:13;;;;;;;;;;;;;;;16.51;100.00;101536.25;5094392;28;19971;-77
2022/10/28 11:00:43;;;;;;;;;;;;;;;16.59;100.00;101550.00;5059613;28;20331;-77
2022/10/28 11:03:11;;;;;;;;;;;;;;;16.68;100.00;101536.06;5059878;28;20734;-74
2022/10/28 11:05:36;;;;;;;;;;;;;;;16.75;100.00;101528.56;5041369;28;20062;-76
2022/10/28 11:08:05;;;;;;;;;;;;;;;16.80;100.00;101514.91;5060726;28;20372;-75
2022/10/28 11:10:31;;;;;;;;;;;;;;;16.84;100.00;101513.78;5074236;28;20008;-75
2022/10/28 11:12:57;;;;;;;;;;;;;;;16.88;100.00;101517.13;5070707;28;19937;-75
2022/10/28 11:15:24;;;;;;;;;;;;;;;16.91;100.00;101509.75;5025354;28;19929;-75
2022/10/28 11:17:59;;;;;;;;;;;;;;;16.95;100.00;101492.56;5039102;28;20015;-74
2022/10/28 11:20:51;;;;;;;;;;;;;;;17.00;100.00;101500.28;5038942;28;19990;-75
2022/10/28 11:23:42;;;;;;;;;;;;;;;17.04;100.00;101485.81;5038916;28;19925;-75
2022/10/28 11:26:09;;;;;;;;;;;;;;;17.14;100.00;101491.44;5044583;28;20450;-75
2022/10/28 11:28:57;;;;;;;;;;;;;;;17.23;100.00;101495.34;5038480;28;20317;-75
2022/10/28 11:31:23;;;;;;;;;;;;;;;17.33;100.00;101492.97;5069470;28;20362;-74
2022/10/28 11:33:53;;;;;;;;;;;;;;;17.39;100.00;101497.91;5039203;28;19931;-76
2022/10/28 11:36:24;;;;;;;;;;;;;;;17.45;100.00;101484.13;5042720;28;19968;-74
2022/10/28 11:39:00;;;;;;;;;;;;;;;17.53;100.00;101486.31;5038446;28;19955;-74
2022/10/28 11:41:37;;;;;;;;;;;;;;;17.59;100.00;101479.72;5044152;28;19940;-74
2022/10/28 11:44:05;;;;;;;;;;;;;;;17.65;100.00;101484.63;5030602;28;19981;-74
2022/10/28 11:46:46;;;;;;;;;;;;;;;17.69;100.00;101490.69;5044616;28;20007;-74
2022/10/28 11:49:30;;;;;;;;;;;;;;;17.73;100.00;101502.88;5058269;28;19934;-75
2022/10/28 11:52:11;;;;;;;;;;;;;;;17.78;100.00;101498.94;5044803;28;20643;-74
2022/10/28 11:54:37;;;;;;;;;;;;;;;17.81;100.00;101505.06;5045042;28;19928;-74
2022/10/28 11:57:28;;;;;;;;;;;;;;;17.83;100.00;101508.50;5043870;28;20307;-74
2022/10/28 12:00:09;;;;;;;;;;;;;;;17.84;100.00;101507.53;5014706;28;20058;-74
2022/10/28 12:02:41;;;;;;;;;;;;;;;17.83;100.00;101508.50;5045059;28;19939;-75
2022/10/28 12:05:06;;;;;;;;;;;;;;;17.83;100.00;101505.81;5044826;28;19935;-74
2022/10/28 12:07:50;;;;;;;;;;;;;;;17.82;100.00;101509.47;5044726;28;19928;-74
2022/10/28 12:10:28;;;;;;;;;;;;;;;17.81;100.00;101510.44;5044744;28;19929;-74
2022/10/28 12:12:53;;;;;;;;;;;;;;;17.82;100.00;101517.50;5042852;28;21474;-74
2022/10/28 12:15:24;;;;;;;;;;;;;;;17.81;100.00;101513.09;5031582;28;19935;-73
2022/10/28 12:18:17;;;;;;;;;;;;;;;17.83;100.00;101508.50;5031256;28;20450;-74
2022/10/28 12:21:01;;;;;;;;;;;;;;;17.84;100.00;101510.22;5056687;28;19982;-74
2022/10/28 12:23:27;;;;;;;;;;;;;;;17.86;100.00;101516.34;5044734;28;19932;-74
2022/10/28 12:25:53;;;;;;;;;;;;;;;17.87;100.00;101520.75;5043195;28;19975;-74
2022/10/28 12:28:20;;;;;;;;;;;;;;;17.88;100.00;101523.28;5034614;28;19924;-74
2022/10/28 12:30:46;;;;;;;;;;;;;;;17.89;100.00;101513.44;5041515;28;21105;-74
2022/10/28 12:33:21;;;;;;;;;;;;;;;17.93;100.00;101514.97;5031151;28;20007;-74
2022/10/28 12:35:47;;;;;;;;;;;;;;;17.96;100.00;101514.75;5030870;28;20996;-74